createdAt,value
2019-03-24T00:00:33.463Z,2.9
2019-03-24T00:01:42.996Z,2.8
2019-03-24T00:02:52.524Z,2.4
2019-03-24T00:04:02.069Z,3.3
2019-03-24T00:05:11.604Z,2.7
2019-03-24T00:06:21.129Z,3
2019-03-24T00:07:30.677Z,2.7
2019-03-24T00:08:40.216Z,2.5
2019-03-24T00:09:49.751Z,2.6
2019-03-24T00:10:59.287Z,2.9
2019-03-24T00:12:08.863Z,2.8
2019-03-24T00:13:18.403Z,3.4
2019-03-24T00:14:27.938Z,2.3
2019-03-24T00:15:37.485Z,2.8
2019-03-24T00:16:47.022Z,3.2
2019-03-24T00:17:56.535Z,2.6
2019-03-24T00:19:06.104Z,3.2
2019-03-24T00:20:15.608Z,2.9
2019-03-24T00:21:25.139Z,2.6
2019-03-24T00:22:34.671Z,3.4
2019-03-24T00:23:44.216Z,2.8
2019-03-24T00:24:53.737Z,2.6
2019-03-24T00:26:03.276Z,2.5
2019-03-24T00:27:12.816Z,3
2019-03-24T00:28:22.372Z,2.9
2019-03-24T00:29:31.892Z,2.2
2019-03-24T00:30:41.428Z,2.5
2019-03-24T00:31:50.967Z,2.7
2019-03-24T00:33:00.497Z,2.8
2019-03-24T00:34:10.067Z,2.8
2019-03-24T00:35:19.587Z,2.4
2019-03-24T00:36:30.111Z,2.6
2019-03-24T00:37:39.687Z,2.8
2019-03-24T00:38:49.233Z,2.2
2019-03-24T00:39:58.761Z,2.8
2019-03-24T00:41:08.312Z,2.4
2019-03-24T00:42:17.823Z,2.7
2019-03-24T00:43:27.347Z,2.9
2019-03-24T00:44:36.935Z,2.3
2019-03-24T00:45:46.561Z,2.6
2019-03-24T00:46:56.220Z,2.2
2019-03-24T00:48:05.875Z,2.4
2019-03-24T00:49:15.544Z,2.7
2019-03-24T00:50:25.210Z,2.4
2019-03-24T00:51:34.894Z,2.4
2019-03-24T00:52:44.467Z,2.7
2019-03-24T00:53:54.033Z,2.4
2019-03-24T00:55:03.556Z,2.8
2019-03-24T00:56:13.085Z,3.1
2019-03-24T00:57:22.621Z,2.9
2019-03-24T00:58:33.139Z,3.1
2019-03-24T00:59:42.695Z,2.6
2019-03-24T01:00:52.231Z,2.2
2019-03-24T01:02:01.766Z,2.4
2019-03-24T01:03:11.284Z,2.6
2019-03-24T01:04:20.836Z,3
2019-03-24T01:05:30.387Z,2.4
2019-03-24T01:06:39.902Z,2.2
2019-03-24T01:07:49.423Z,2.5
2019-03-24T01:08:58.962Z,2.7
2019-03-24T01:10:08.479Z,2.3
2019-03-24T01:11:18.011Z,2.6
2019-03-24T01:12:27.546Z,2.2
2019-03-24T01:13:37.087Z,2.3
2019-03-24T01:14:46.640Z,2.3
2019-03-24T01:15:56.173Z,2.7
2019-03-24T01:17:05.709Z,2.7
2019-03-24T01:18:15.233Z,2.7
2019-03-24T01:19:24.776Z,2.2
2019-03-24T01:20:34.314Z,2.6
2019-03-24T01:21:43.848Z,2.6
2019-03-24T01:22:53.387Z,2
2019-03-24T01:24:02.921Z,2.6
2019-03-24T01:25:12.467Z,2.7
2019-03-24T01:26:21.996Z,2.2
2019-03-24T01:27:31.531Z,2.5
2019-03-24T01:28:41.047Z,2.9
2019-03-24T01:29:50.593Z,2.2
2019-03-24T01:31:00.109Z,2.4
2019-03-24T01:32:09.640Z,2.8
2019-03-24T01:33:19.190Z,2.6
2019-03-24T01:34:28.742Z,2.9
2019-03-24T01:35:38.275Z,2.3
2019-03-24T01:36:47.814Z,2.4
2019-03-24T01:37:57.346Z,2.8
2019-03-24T01:39:06.875Z,2.8
2019-03-24T01:40:16.418Z,3.2
2019-03-24T01:41:25.944Z,2.3
2019-03-24T01:42:35.480Z,2.3
2019-03-24T01:43:45.008Z,2.6
2019-03-24T01:44:54.570Z,2.6
2019-03-24T01:46:04.085Z,2.6
2019-03-24T01:47:13.600Z,2.3
2019-03-24T01:48:23.122Z,2.5
2019-03-24T01:49:32.663Z,2.3
2019-03-24T01:50:42.199Z,2.5
2019-03-24T01:51:51.726Z,2.4
2019-03-24T01:53:01.262Z,2.3
2019-03-24T01:54:10.809Z,2.5
2019-03-24T01:55:20.368Z,2.9
2019-03-24T01:56:30.872Z,2.7
2019-03-24T01:57:40.410Z,3
2019-03-24T01:58:49.931Z,2.9
2019-03-24T01:59:59.481Z,2.7
2019-03-24T02:01:09.006Z,2.7
2019-03-24T02:02:18.619Z,2.3
2019-03-24T02:03:28.272Z,2.1
2019-03-24T02:04:37.928Z,2.7
2019-03-24T02:05:48.467Z,2.4
2019-03-24T02:06:58.009Z,2.7
2019-03-24T02:08:07.525Z,2.2
2019-03-24T02:09:17.068Z,2.3
2019-03-24T02:10:26.801Z,2.4
2019-03-24T02:11:36.343Z,1.8
2019-03-24T02:12:45.859Z,2.8
2019-03-24T02:13:56.397Z,2.3
2019-03-24T02:15:05.942Z,2.4
2019-03-24T02:16:15.473Z,2.8
2019-03-24T02:17:25.026Z,2.6
2019-03-24T02:18:34.540Z,2.4
2019-03-24T02:19:44.075Z,2.4
2019-03-24T02:20:53.632Z,1.8
2019-03-24T02:22:03.167Z,2.7
2019-03-24T02:23:12.710Z,2.2
2019-03-24T02:24:22.239Z,3.3
2019-03-24T02:25:31.779Z,2.5
2019-03-24T02:26:41.299Z,2
2019-03-24T02:27:50.827Z,2.4
2019-03-24T02:29:00.359Z,2.5
2019-03-24T02:30:09.910Z,2.6
2019-03-24T02:31:19.493Z,2.4
2019-03-24T02:32:29.023Z,2.4
2019-03-24T02:33:38.561Z,1.9
2019-03-24T02:34:48.099Z,2.7
2019-03-24T02:35:57.648Z,2.8
2019-03-24T02:37:07.178Z,2.7
2019-03-24T02:38:16.725Z,2.5
2019-03-24T02:39:26.231Z,2.7
2019-03-24T02:40:35.807Z,2.5
2019-03-24T02:41:45.392Z,2.9
2019-03-24T02:42:55.872Z,2.7
2019-03-24T02:44:05.446Z,2.7
2019-03-24T02:45:15.965Z,2.4
2019-03-24T02:46:25.476Z,2.2
2019-03-24T02:47:35.054Z,2.1
2019-03-24T02:48:44.547Z,2.5
2019-03-24T02:49:54.077Z,2.6
2019-03-24T02:51:03.643Z,2.4
2019-03-24T02:52:13.172Z,2.2
2019-03-24T02:53:23.715Z,2
2019-03-24T02:54:33.255Z,2.1
2019-03-24T02:55:42.816Z,2.2
2019-03-24T02:56:52.381Z,2.2
2019-03-24T02:58:01.862Z,2.3
2019-03-24T02:59:11.411Z,3
2019-03-24T03:00:20.926Z,2.7
2019-03-24T03:01:31.463Z,2.2
2019-03-24T03:02:40.991Z,2.2
2019-03-24T03:03:51.503Z,2.5
2019-03-24T03:05:01.043Z,2.4
2019-03-24T03:06:10.589Z,1.9
2019-03-24T03:07:20.142Z,2.4
2019-03-24T03:08:29.675Z,2.8
2019-03-24T03:09:39.193Z,2.6
2019-03-24T03:10:48.743Z,2.3
2019-03-24T03:11:58.279Z,2.5
2019-03-24T03:13:07.799Z,2.2
2019-03-24T03:14:17.322Z,2.5
2019-03-24T03:15:27.875Z,2.1
2019-03-24T03:16:38.554Z,2.2
2019-03-24T03:17:47.942Z,2.3
2019-03-24T03:18:57.454Z,2.4
2019-03-24T03:20:06.977Z,2.6
2019-03-24T03:21:16.520Z,2.2
2019-03-24T03:22:26.058Z,2.2
2019-03-24T03:23:35.584Z,2.4
2019-03-24T03:24:45.123Z,2.7
2019-03-24T03:25:54.648Z,2.1
2019-03-24T03:27:04.246Z,2
2019-03-24T03:28:13.790Z,2.7
2019-03-24T03:29:23.335Z,2.5
2019-03-24T03:30:32.873Z,2.6
2019-03-24T03:31:42.413Z,2.9
2019-03-24T03:32:51.963Z,2.8
2019-03-24T03:34:01.474Z,2.1
2019-03-24T03:35:11.025Z,2.3
2019-03-24T03:36:20.588Z,2.1
2019-03-24T03:37:30.140Z,2.4
2019-03-24T03:38:39.689Z,2.4
2019-03-24T03:39:49.171Z,2.2
2019-03-24T03:40:58.741Z,2.3
2019-03-24T03:42:08.279Z,2.2
2019-03-24T03:43:17.808Z,2.8
2019-03-24T03:44:27.334Z,2.2
2019-03-24T03:45:39.199Z,2.9
2019-03-24T03:46:52.729Z,2.4
2019-03-24T03:47:57.916Z,2.1
2019-03-24T03:49:07.436Z,2.5
2019-03-24T03:50:16.966Z,1.9
2019-03-24T03:51:26.523Z,2.2
2019-03-24T03:52:36.055Z,1.9
2019-03-24T03:53:45.579Z,2.1
2019-03-24T03:54:55.121Z,2.4
2019-03-24T03:56:04.667Z,2.4
2019-03-24T03:57:14.189Z,2.2
2019-03-24T03:58:23.736Z,1.9
2019-03-24T03:59:33.279Z,1.8
2019-03-24T04:00:42.790Z,1.8
2019-03-24T04:01:52.345Z,2.4
2019-03-24T04:03:01.885Z,1.8
2019-03-24T04:04:11.429Z,2.5
2019-03-24T04:05:20.970Z,1.9
2019-03-24T04:06:30.587Z,1.8
2019-03-24T04:07:40.116Z,2.3
2019-03-24T04:08:49.656Z,1.9
2019-03-24T04:10:00.301Z,1.9
2019-03-24T04:11:09.721Z,2.3
2019-03-24T04:12:19.259Z,2
2019-03-24T04:13:28.804Z,1.8
2019-03-24T04:14:38.330Z,1.8
2019-03-24T04:15:47.866Z,1.9
2019-03-24T04:17:06.641Z,1.6
2019-03-24T04:18:07.950Z,2.1
2019-03-24T04:19:17.521Z,2.3
2019-03-24T04:20:27.019Z,1.8
2019-03-24T04:21:36.556Z,1.9
2019-03-24T04:22:46.099Z,1.6
2019-03-24T04:23:55.650Z,1.9
2019-03-24T04:25:05.184Z,1.9
2019-03-24T04:26:14.750Z,2.1
2019-03-24T04:27:24.257Z,2.1
2019-03-24T04:28:33.779Z,1.9
2019-03-24T04:29:43.310Z,1.6
2019-03-24T04:30:52.855Z,2
2019-03-24T04:32:02.416Z,2.1
2019-03-24T04:33:11.961Z,1.8
2019-03-24T04:34:21.514Z,2.4
2019-03-24T04:35:31.023Z,2.5
2019-03-24T04:36:40.569Z,1.8
2019-03-24T04:37:50.121Z,1.8
2019-03-24T04:38:59.652Z,1.8
2019-03-24T04:40:09.172Z,1.9
2019-03-24T04:41:18.711Z,2.2
2019-03-24T04:42:28.273Z,1.9
2019-03-24T04:43:38.806Z,2.2
2019-03-24T04:44:48.327Z,2.2
2019-03-24T04:45:57.988Z,2.3
2019-03-24T04:47:16.274Z,1.5
2019-03-24T04:48:18.031Z,1.9
2019-03-24T04:49:27.578Z,2.3
2019-03-24T04:50:37.121Z,2.3
2019-03-24T04:51:46.689Z,2.1
2019-03-24T04:52:56.220Z,1.9
2019-03-24T04:54:05.749Z,1.7
2019-03-24T04:55:15.284Z,2
2019-03-24T04:56:24.839Z,1.7
2019-03-24T04:57:34.390Z,1.7
2019-03-24T04:58:43.948Z,2
2019-03-24T04:59:53.464Z,1.9
2019-03-24T05:01:02.999Z,2
2019-03-24T05:02:12.533Z,3
2019-03-24T05:03:22.078Z,1.6
2019-03-24T05:04:32.582Z,2.4
2019-03-24T05:05:42.115Z,2
2019-03-24T05:06:51.656Z,2.2
2019-03-24T05:08:01.219Z,2.1
2019-03-24T05:09:10.741Z,1.7
2019-03-24T05:10:20.287Z,2.5
2019-03-24T05:11:29.835Z,1.7
2019-03-24T05:12:39.371Z,2.1
2019-03-24T05:13:48.917Z,1.8
2019-03-24T05:14:58.438Z,2.1
2019-03-24T05:16:07.980Z,2.2
2019-03-24T05:17:26.641Z,1.8
2019-03-24T05:18:28.051Z,2.8
2019-03-24T05:19:37.603Z,1.8
2019-03-24T05:20:47.128Z,2.4
2019-03-24T05:21:56.646Z,2.5
2019-03-24T05:23:06.215Z,2
2019-03-24T05:24:15.742Z,2.5
2019-03-24T05:25:25.269Z,2.3
2019-03-24T05:26:34.807Z,2.2
2019-03-24T05:27:44.373Z,2.2
2019-03-24T05:28:53.902Z,1.9
2019-03-24T05:30:03.410Z,2.5
2019-03-24T05:31:13.963Z,2.4
2019-03-24T05:32:23.502Z,1.9
2019-03-24T05:33:33.046Z,2
2019-03-24T05:34:42.586Z,1.6
2019-03-24T05:35:52.115Z,1.9
2019-03-24T05:37:01.650Z,2.5
2019-03-24T05:38:11.184Z,1.7
2019-03-24T05:39:20.728Z,2.2
2019-03-24T05:40:30.269Z,2.4
2019-03-24T05:41:39.786Z,1.7
2019-03-24T05:42:49.334Z,2
2019-03-24T05:43:58.863Z,2.1
2019-03-24T05:45:08.397Z,2.3
2019-03-24T05:46:17.919Z,2.6
2019-03-24T05:47:36.754Z,2.1
2019-03-24T05:48:37.981Z,2.4
2019-03-24T05:49:47.539Z,2.2
2019-03-24T05:50:57.069Z,1.8
2019-03-24T05:52:06.627Z,2.2
2019-03-24T05:53:16.163Z,2.4
2019-03-24T05:54:26.688Z,2.5
2019-03-24T05:55:36.235Z,1.9
2019-03-24T05:56:45.847Z,2.5
2019-03-24T05:57:55.426Z,2
2019-03-24T05:59:04.957Z,2.1
2019-03-24T06:00:14.500Z,2.2
2019-03-24T06:01:24.033Z,2
2019-03-24T06:02:33.586Z,1.7
2019-03-24T06:03:43.146Z,1.9
2019-03-24T06:04:52.689Z,2
2019-03-24T06:06:02.212Z,1.9
2019-03-24T06:07:11.748Z,2.2
2019-03-24T06:08:21.343Z,1.3
2019-03-24T06:09:30.880Z,2
2019-03-24T06:10:40.404Z,1.8
2019-03-24T06:11:49.928Z,1.8
2019-03-24T06:12:59.506Z,1.7
2019-03-24T06:14:10.034Z,2.1
2019-03-24T06:15:19.588Z,2
2019-03-24T06:16:29.103Z,1.8
2019-03-24T06:17:47.311Z,2.1
2019-03-24T06:18:49.198Z,1.6
2019-03-24T06:19:58.910Z,1.6
2019-03-24T06:21:08.548Z,1.7
2019-03-24T06:22:18.076Z,1.6
2019-03-24T06:23:27.649Z,1.6
2019-03-24T06:24:37.180Z,2.3
2019-03-24T06:25:46.699Z,1.9
2019-03-24T06:26:56.227Z,2.3
2019-03-24T06:28:05.761Z,1.4
2019-03-24T06:29:15.310Z,1.8
2019-03-24T06:30:24.845Z,2.1
2019-03-24T06:31:34.507Z,2
2019-03-24T06:32:44.168Z,2.1
2019-03-24T06:33:53.823Z,2
2019-03-24T06:35:03.471Z,1.6
2019-03-24T06:36:13.146Z,1.8
2019-03-24T06:37:22.689Z,1.9
2019-03-24T06:38:32.280Z,1.9
2019-03-24T06:39:41.815Z,3.6
2019-03-24T06:40:51.353Z,1.7
2019-03-24T06:42:00.883Z,1.6
2019-03-24T06:43:10.441Z,2
2019-03-24T06:44:19.963Z,1.8
2019-03-24T06:45:29.469Z,1.5
2019-03-24T06:46:38.998Z,1.8
2019-03-24T06:47:57.525Z,2.1
2019-03-24T06:48:59.057Z,1.8
2019-03-24T06:50:08.573Z,1.5
2019-03-24T06:51:18.111Z,1.8
2019-03-24T06:52:27.646Z,1.8
2019-03-24T06:53:37.198Z,1.6
2019-03-24T06:54:46.729Z,1.7
2019-03-24T06:55:56.253Z,2
2019-03-24T06:57:05.793Z,1.9
2019-03-24T06:58:15.323Z,2.2
2019-03-24T06:59:24.862Z,1.9
2019-03-24T07:00:34.415Z,1.6
2019-03-24T07:01:43.947Z,1.8
2019-03-24T07:02:53.478Z,2.3
2019-03-24T07:04:03.015Z,1.6
2019-03-24T07:05:12.564Z,1.9
2019-03-24T07:06:22.098Z,2
2019-03-24T07:07:32.620Z,2.3
2019-03-24T07:08:42.159Z,1.8
2019-03-24T07:09:51.711Z,2.1
2019-03-24T07:11:01.251Z,1.9
2019-03-24T07:12:10.806Z,2.4
2019-03-24T07:13:20.321Z,2.3
2019-03-24T07:14:29.882Z,1.8
2019-03-24T07:15:39.401Z,2
2019-03-24T07:16:48.925Z,1.7
2019-03-24T07:18:08.061Z,2.2
2019-03-24T07:19:09.207Z,2.2
2019-03-24T07:20:18.863Z,1.8
2019-03-24T07:21:28.369Z,2.2
2019-03-24T07:22:37.907Z,1.9
2019-03-24T07:23:47.552Z,1.9
2019-03-24T07:24:57.156Z,2.3
2019-03-24T07:26:06.832Z,2.2
2019-03-24T07:27:16.451Z,2.2
2019-03-24T07:28:26.120Z,2.3
2019-03-24T07:29:35.759Z,2.1
2019-03-24T07:30:45.430Z,2.4
2019-03-24T07:31:54.959Z,1.9
2019-03-24T07:33:04.486Z,2
2019-03-24T07:34:14.049Z,2.2
2019-03-24T07:35:23.578Z,1.8
2019-03-24T07:36:33.105Z,1.8
2019-03-24T07:37:42.631Z,2.1
2019-03-24T07:38:52.156Z,2
2019-03-24T07:40:01.709Z,2.3
2019-03-24T07:41:11.221Z,2
2019-03-24T07:42:20.742Z,2.3
2019-03-24T07:43:30.265Z,2.1
2019-03-24T07:44:39.817Z,2.4
2019-03-24T07:45:49.345Z,2.1
2019-03-24T07:46:58.890Z,2.4
2019-03-24T07:48:18.369Z,2.6
2019-03-24T07:49:18.961Z,2
2019-03-24T07:50:28.533Z,2.7
2019-03-24T07:51:38.068Z,2.1
2019-03-24T07:52:47.578Z,2.1
2019-03-24T07:53:57.112Z,2.8
2019-03-24T07:55:06.686Z,3.3
2019-03-24T07:56:16.219Z,2.6
2019-03-24T07:57:25.753Z,2.8
2019-03-24T07:58:35.283Z,2.3
2019-03-24T07:59:44.830Z,2.4
2019-03-24T08:00:54.360Z,2.8
2019-03-24T08:02:03.995Z,2.2
2019-03-24T08:03:13.525Z,3
2019-03-24T08:04:23.050Z,2.8
2019-03-24T08:05:32.598Z,2.6
2019-03-24T08:06:42.123Z,3.5
2019-03-24T08:07:51.672Z,2.5
2019-03-24T08:09:01.203Z,2.3
2019-03-24T08:10:10.743Z,2.1
2019-03-24T08:11:20.283Z,2.8
2019-03-24T08:12:29.814Z,2.9
2019-03-24T08:13:39.369Z,2.3
2019-03-24T08:14:48.923Z,2.9
2019-03-24T08:15:58.571Z,2.6
2019-03-24T08:17:08.110Z,2.3
2019-03-24T08:18:17.632Z,2.5
2019-03-24T08:19:27.162Z,2.8
2019-03-24T08:20:36.714Z,2.5
2019-03-24T08:21:46.245Z,2.7
2019-03-24T08:22:55.775Z,2.3
2019-03-24T08:24:05.302Z,2.5
2019-03-24T08:25:14.829Z,2.6
2019-03-24T08:26:24.379Z,2.5
2019-03-24T08:27:33.915Z,2.7
2019-03-24T08:28:43.463Z,2.9
2019-03-24T08:29:53.965Z,2.5
2019-03-24T08:31:03.525Z,2.5
2019-03-24T08:32:13.063Z,2.6
2019-03-24T08:33:22.602Z,2.2
2019-03-24T08:34:32.150Z,2.5
2019-03-24T08:35:41.681Z,2.4
2019-03-24T08:36:51.232Z,2.5
2019-03-24T08:38:00.752Z,2.2
2019-03-24T08:39:10.263Z,2.1
2019-03-24T08:40:19.949Z,2.9
2019-03-24T08:41:29.516Z,2.4
2019-03-24T08:42:39.039Z,2.5
2019-03-24T08:43:48.573Z,2.2
2019-03-24T08:44:58.111Z,2.6
2019-03-24T08:46:07.675Z,2.8
2019-03-24T08:47:17.197Z,2.2
2019-03-24T08:48:26.736Z,2.2
2019-03-24T08:49:36.264Z,3
2019-03-24T08:50:45.798Z,2.4
2019-03-24T08:51:55.324Z,2.4
2019-03-24T08:53:04.868Z,2.2
2019-03-24T08:54:14.403Z,2.3
2019-03-24T08:55:23.950Z,2.4
2019-03-24T08:56:33.483Z,2.3
2019-03-24T08:57:43.213Z,2.6
2019-03-24T08:58:52.812Z,2.7
2019-03-24T09:00:03.848Z,2.3
2019-03-24T09:01:12.969Z,2.2
2019-03-24T09:02:22.521Z,2.7
2019-03-24T09:03:32.688Z,2.2
2019-03-24T09:04:41.580Z,2.7
2019-03-24T09:05:51.124Z,2.2
2019-03-24T09:07:00.700Z,2.9
2019-03-24T09:08:10.229Z,2.5
2019-03-24T09:09:19.748Z,2.2
2019-03-24T09:10:29.284Z,2.6
2019-03-24T09:11:38.815Z,2.7
2019-03-24T09:12:48.364Z,2.5
2019-03-24T09:13:57.892Z,2.4
2019-03-24T09:15:07.435Z,2.9
2019-03-24T09:16:18.057Z,3.1
2019-03-24T09:17:27.651Z,2.6
2019-03-24T09:18:37.189Z,2.7
2019-03-24T09:19:46.778Z,2.9
2019-03-24T09:20:56.404Z,2.9
2019-03-24T09:22:06.067Z,2.8
2019-03-24T09:23:15.575Z,3
2019-03-24T09:24:25.121Z,2.8
2019-03-24T09:25:34.778Z,2.1
2019-03-24T09:26:44.292Z,2.6
2019-03-24T09:27:53.793Z,3.1
2019-03-24T09:29:03.325Z,2.3
2019-03-24T09:30:12.883Z,2.9
2019-03-24T09:31:22.446Z,3.1
2019-03-24T09:32:32.000Z,3
2019-03-24T09:33:41.536Z,2.5
2019-03-24T09:34:51.077Z,2.6
2019-03-24T09:36:00.622Z,2.6
2019-03-24T09:37:10.167Z,2.7
2019-03-24T09:38:19.691Z,2.2
2019-03-24T09:39:29.222Z,3.1
2019-03-24T09:40:38.746Z,2.8
2019-03-24T09:41:48.318Z,3
2019-03-24T09:42:57.837Z,3
2019-03-24T09:44:07.380Z,2.9
2019-03-24T09:45:16.991Z,3.1
2019-03-24T09:46:26.596Z,3.3
2019-03-24T09:47:36.106Z,3
2019-03-24T09:48:45.672Z,3.1
2019-03-24T09:49:55.190Z,3.5
2019-03-24T09:51:04.755Z,2.8
2019-03-24T09:52:14.314Z,3
2019-03-24T09:53:23.918Z,3.1
2019-03-24T09:54:33.476Z,3.3
2019-03-24T09:55:42.996Z,2.7
2019-03-24T09:56:52.578Z,2.7
2019-03-24T09:58:02.145Z,2.6
2019-03-24T09:59:11.668Z,2.9
2019-03-24T10:00:21.199Z,2.9
2019-03-24T10:01:31.595Z,3.1
2019-03-24T10:02:41.168Z,2.5
2019-03-24T10:03:50.967Z,2.8
2019-03-24T10:05:00.511Z,2.9
2019-03-24T10:06:11.202Z,2.9
2019-03-24T10:07:20.749Z,2.9
2019-03-24T10:08:30.312Z,2.7
2019-03-24T10:09:39.858Z,2.6
2019-03-24T10:10:49.405Z,2.9
2019-03-24T10:11:58.974Z,3.1
2019-03-24T10:13:08.513Z,2.7
2019-03-24T10:14:18.015Z,2.7
2019-03-24T10:15:27.548Z,3
2019-03-24T10:16:37.088Z,2.9
2019-03-24T10:17:46.644Z,3.6
2019-03-24T10:18:56.194Z,2.8
2019-03-24T10:20:05.742Z,2.7
2019-03-24T10:21:15.267Z,3.1
2019-03-24T10:22:24.829Z,3
2019-03-24T10:23:34.377Z,3
2019-03-24T10:24:43.961Z,2.9
2019-03-24T10:25:54.483Z,3
2019-03-24T10:27:04.043Z,3.2
2019-03-24T10:28:13.594Z,2.9
2019-03-24T10:29:23.127Z,3.3
2019-03-24T10:30:32.657Z,2.6
2019-03-24T10:31:42.670Z,3.5
2019-03-24T10:32:51.801Z,3.2
2019-03-24T10:34:01.360Z,3.1
2019-03-24T10:35:10.931Z,2.5
2019-03-24T10:36:20.540Z,3.5
2019-03-24T10:37:30.127Z,3.1
2019-03-24T10:38:39.622Z,3
2019-03-24T10:39:49.168Z,2.6
2019-03-24T10:40:58.778Z,2.9
2019-03-24T10:42:08.343Z,2.7
2019-03-24T10:43:17.890Z,3
2019-03-24T10:44:27.439Z,3
2019-03-24T10:45:36.993Z,3.1
2019-03-24T10:46:46.519Z,2.8
2019-03-24T10:47:56.092Z,3.2
2019-03-24T10:49:06.629Z,3.6
2019-03-24T10:50:16.153Z,3.3
2019-03-24T10:51:25.715Z,2.8
2019-03-24T10:52:35.290Z,2.8
2019-03-24T10:53:44.832Z,3.5
2019-03-24T10:54:54.385Z,3.3
2019-03-24T10:56:03.932Z,3.3
2019-03-24T10:57:13.539Z,2.7
2019-03-24T10:58:23.094Z,2.9
2019-03-24T10:59:32.648Z,3.3
2019-03-24T11:00:42.242Z,2.9
2019-03-24T11:01:51.810Z,2.7
2019-03-24T11:03:01.394Z,3.2
2019-03-24T11:04:10.971Z,2.6
2019-03-24T11:05:20.573Z,3.1
2019-03-24T11:06:30.118Z,3.3
2019-03-24T11:07:39.719Z,3.5
2019-03-24T11:08:49.313Z,3.3
2019-03-24T11:09:58.862Z,3.1
2019-03-24T11:11:08.410Z,2.6
2019-03-24T11:12:17.947Z,3.3
2019-03-24T11:13:27.582Z,3
2019-03-24T11:14:37.186Z,3
2019-03-24T11:15:46.780Z,3.4
2019-03-24T11:16:56.311Z,3
2019-03-24T11:18:05.880Z,3.3
2019-03-24T11:19:15.418Z,3
2019-03-24T11:20:24.952Z,2.9
2019-03-24T11:21:34.529Z,3.2
2019-03-24T11:22:44.096Z,2.8
2019-03-24T11:23:53.682Z,2.9
2019-03-24T11:25:03.304Z,3
2019-03-24T11:26:12.864Z,2.9
2019-03-24T11:27:22.417Z,3.2
2019-03-24T11:28:32.016Z,2.7
2019-03-24T11:29:41.557Z,2.6
2019-03-24T11:30:51.130Z,3.2
2019-03-24T11:32:00.701Z,3.3
2019-03-24T11:33:10.303Z,3
2019-03-24T11:34:19.907Z,3.2
2019-03-24T11:35:29.549Z,3
2019-03-24T11:36:39.103Z,2.8
2019-03-24T11:37:48.728Z,3
2019-03-24T11:38:59.189Z,2.8
2019-03-24T11:40:07.907Z,2.8
2019-03-24T11:41:17.464Z,3.2
2019-03-24T11:42:28.081Z,2.7
2019-03-24T11:43:37.667Z,3.1
2019-03-24T11:44:47.271Z,2.9
2019-03-24T11:45:56.901Z,3.1
2019-03-24T11:47:06.493Z,3.3
2019-03-24T11:48:16.095Z,2.9
2019-03-24T11:49:25.754Z,3.6
2019-03-24T11:50:35.333Z,2.6
2019-03-24T11:51:44.902Z,2.8
2019-03-24T11:52:54.487Z,3.1
2019-03-24T11:54:04.119Z,2.9
2019-03-24T11:55:13.687Z,2.7
2019-03-24T11:56:23.258Z,3.4
2019-03-24T11:57:32.888Z,3.2
2019-03-24T11:58:42.653Z,3.2
2019-03-24T11:59:52.117Z,2.9
2019-03-24T12:01:01.717Z,3
2019-03-24T12:02:11.256Z,3
2019-03-24T12:03:20.896Z,2.7
2019-03-24T12:04:30.382Z,2.8
2019-03-24T12:05:39.916Z,3
2019-03-24T12:06:49.494Z,2.9
2019-03-24T12:07:59.129Z,2.8
2019-03-24T12:09:08.799Z,3.3
2019-03-24T12:10:18.353Z,2.9
2019-03-24T12:11:28.219Z,3.1
2019-03-24T12:12:37.779Z,3
2019-03-24T12:13:47.339Z,2.7
2019-03-24T12:14:56.876Z,3.1
2019-03-24T12:16:06.426Z,2.8
2019-03-24T12:17:17.032Z,2.9
2019-03-24T12:18:26.795Z,2.7
2019-03-24T12:19:36.628Z,3.1
2019-03-24T12:20:46.062Z,2.7
2019-03-24T12:21:55.629Z,2.7
2019-03-24T12:23:05.184Z,3.8
2019-03-24T12:24:14.778Z,3.2
2019-03-24T12:25:24.342Z,3.1
2019-03-24T12:26:33.864Z,3.3
2019-03-24T12:27:43.413Z,3.1
2019-03-24T12:28:53.057Z,3.4
2019-03-24T12:30:02.582Z,2.9
2019-03-24T12:31:12.501Z,2.8
2019-03-24T12:32:22.007Z,3.1
2019-03-24T12:33:31.538Z,2.8
2019-03-24T12:34:41.096Z,3.1
2019-03-24T12:35:50.782Z,2.6
2019-03-24T12:37:00.313Z,2.9
2019-03-24T12:38:09.856Z,2.8
2019-03-24T12:39:19.443Z,3.1
2019-03-24T12:40:28.967Z,2.8
2019-03-24T12:41:38.523Z,2.5
2019-03-24T12:42:48.150Z,2.6
2019-03-24T12:43:57.820Z,3.4
2019-03-24T12:45:07.347Z,3.4
2019-03-24T12:46:16.882Z,2.7
2019-03-24T12:47:26.514Z,3.1
2019-03-24T12:48:36.051Z,3.1
2019-03-24T12:49:45.586Z,3
2019-03-24T12:50:55.127Z,3.2
2019-03-24T12:52:04.713Z,3
2019-03-24T12:53:14.287Z,2.9
2019-03-24T12:54:25.476Z,3.1
2019-03-24T12:55:34.572Z,2.8
2019-03-24T12:56:44.169Z,2.8
2019-03-24T12:57:53.755Z,3
2019-03-24T12:59:03.349Z,2.9
2019-03-24T13:00:12.893Z,2.5
2019-03-24T13:01:22.439Z,2.8
2019-03-24T13:02:31.989Z,3
2019-03-24T13:03:41.550Z,2.4
2019-03-24T13:04:51.112Z,2.8
2019-03-24T13:06:00.656Z,3.1
2019-03-24T13:07:10.208Z,3
2019-03-24T13:08:19.779Z,3.2
2019-03-24T13:09:29.341Z,2.6
2019-03-24T13:10:38.940Z,2.8
2019-03-24T13:11:48.497Z,2.9
2019-03-24T13:12:58.042Z,2.7
2019-03-24T13:14:07.601Z,2.8
2019-03-24T13:15:17.196Z,2.8
2019-03-24T13:16:26.725Z,3.3
